Bodega Marine Reserve, California Weather observations

Data are for 10 minute period ending at time listed.
 Day   Time   Solar   Ave.   Ave.  Ave.  Vector  Max.   Baro.   Total    
  of    of     Rad.   Air    Rel.  Wind   Wind   Wind  Press.  Precip.   
Year   Day            Temp.  Hum.  Speed  Dir.   Gust                    
2016   (PST)  Kw/m2    F      %     mph   deg.    mph    mb.     in.     
-------------------------------------------------------------------------
 271    9:10   0.04   51.5    96    3.6   132     5.6   1010.8    0.00 
 271    9:20   0.04   51.7    96    4.7   135     5.7   1011.2    0.00 
 271    9:30   0.04   51.6    96    3.9   136     6.0   1011.2    0.00 
 271    9:40   0.04   51.7    96    4.0   135     5.4   1011.2    0.00 
 271    9:50   0.04   51.4    96    4.5   131     5.8   1011.5    0.00 
 271   10:00   0.04   51.6    96    4.4   132     5.8   1011.5    0.00 
 271   10:10   0.04   51.6    96    5.0   134     6.2   1011.5    0.00 
 271   10:20   0.04   52.0    96    4.2   132     5.6   1011.5    0.00 
 271   10:30   0.04   52.2    96    3.4   134     4.9   1011.5    0.00 
 271   10:40   0.04   52.6    96    3.2   135     5.2   1011.5    0.00 
 271   10:50   0.04   53.1    95    3.4   129     5.7   1011.5    0.00 
 271   11:00   0.05   53.7    95    4.1   117     5.8   1011.5    0.00 
 271   11:10   0.05   54.4    94    4.0   110     6.1   1011.2    0.00 
 271   11:20   0.05   55.0    94    3.9   120     5.8   1011.2    0.00 
 271   11:30   0.05   55.6    92    5.1   127     9.1   1011.2    0.00 
 271   11:40   0.05   55.1    91    5.2   127     8.8   1011.2    0.00 
 271   11:50   0.05   56.1    89    4.4   127     7.0   1011.2    0.00 
 271   12:00   0.05   56.3    86    5.2   131     8.3   1011.2    0.00 
 271   12:10   0.05   55.5    86    5.3   134     7.7   1011.2    0.00 
 271   12:20   0.05   56.5    85    4.1   127     6.0   1010.8    0.00 
 271   12:30   0.05   57.7    82    3.9   170     7.5   1010.8    0.00 
 271   12:40   0.05   58.6    78    4.2   169     6.8   1010.5    0.00 
 271   12:50   0.05   58.4    78    4.2   207     7.4   1010.5    0.00 
 271   13:00   0.05   59.0    76    3.9   225     6.8   1010.5    0.00 
 271   13:10   0.05   58.8    76    4.8   229     8.0   1010.2    0.00 
 271   13:20   0.06   58.3    77    4.4   226     7.2   1010.2    0.00 
 271   13:30   0.05   58.4    77    4.5   226     7.5   1010.2    0.00 
 271   13:40   0.05   58.3    77    4.7   202     7.6   1010.2    0.00 
 271   13:50   0.05   57.4    79    3.9   236     7.1   1010.2    0.00 
 271   14:00   0.05   56.6    81    4.1   252     7.1   1010.2    0.00 
 271   14:10   0.05   56.1    83    3.5   258     7.4   1010.2    0.00 
 271   14:20   0.05   56.3    84    4.1   250     7.4   1009.8    0.00 
 271   14:30   0.05   56.3    84    3.4   227     5.8   1009.8    0.00 
 271   14:40   0.04   56.8    82    3.6   235     6.4   1009.8    0.00 
 271   14:50   0.05   56.2    84    4.0   254     6.5   1009.8    0.00 
 271   15:00   0.04   56.1    84    3.0   247     5.8   1009.5    0.00 
 271   15:10   0.05   56.2    85    3.9   248     7.3   1009.5    0.00 
 271   15:20   0.04   56.4    84    3.0   233     6.6   1009.5    0.00 
 271   15:30   0.04   56.1    84    3.9   244     5.8   1009.5    0.00 
 271   15:40   0.04   55.9    85    3.7   244     6.8   1009.1    0.00 
 271   15:50   0.05   55.6    86    3.9   243     6.8   1009.1    0.00 
 271   16:00   0.05   56.6    85    4.0   238     5.7   1008.8    0.00 
 271   16:10   0.04   58.1    81    4.1   200     7.1   1008.8    0.00 
 271   16:20   0.04   58.9    79    4.0   204     6.4   1008.8    0.00 
 271   16:30   0.04   59.9    76    2.0   211     4.5   1008.8    0.00 
 271   16:40   0.04   59.9    76    2.7   228     6.0   1008.5    0.00 
 271   16:50   0.04   59.5    76    3.2   266     5.6   1008.5    0.00 
 271   17:00   0.04   56.9    81    4.8   272     6.6   1008.5    0.00 
 271   17:10   0.04   55.0    86    5.7   275     7.6   1008.5    0.00 
 271   17:20   0.04   54.2    88    5.6   291     7.3   1008.5    0.00 
 271   17:30   0.03   53.8    88    5.6   299     7.6   1008.5    0.00 
 271   17:40   0.03   53.2    90    5.5   304     7.5   1008.5    0.00 
 271   17:50   0.03   53.2    90    5.1   306     7.5   1008.5    0.00 
 271   18:00   0.03   52.8    91    5.3   303     7.7   1008.5    0.00 
 271   18:10   0.03   52.6    91    5.5   302     8.3   1008.5    0.00 
 271   18:20   0.03   52.4    92    5.3   283     6.9   1008.5    0.00 
 271   18:30   0.01   52.2    92    5.2   288     7.2   1008.5    0.00 
 271   18:40   0.01   52.1    93    4.8   292     8.4   1008.5    0.00 
 271   18:50   0.01   52.0    93    4.5   277     7.4   1008.5    0.00 
 271   19:00   0.00   51.8    93    5.2   292     7.3   1008.5    0.00 
 271   19:10   0.00   51.4    94    5.1   307     7.3   1008.5    0.00 
 271   19:20   0.00   51.5    94    4.9   281     7.7   1008.5    0.00 
 271   19:30   0.00   51.6    94    5.3   290     8.0   1008.5    0.00 
 271   19:40   0.00   51.5    94    6.4   297     8.8   1008.5    0.00 
 271   19:50   0.00   51.5    94    5.3   287     7.5   1008.5    0.00 
 271   20:00   0.00   51.6    94    4.9   292     7.2   1008.5    0.00 
 271   20:10   0.00   51.5    94    5.4   305     8.0   1008.5    0.00 
 271   20:20   0.00   51.4    95    4.7   306     6.4   1008.5    0.00 
 271   20:30   0.00   51.2    95    3.8   306     5.6   1008.5    0.00 
 271   20:40   0.00   51.2    95    4.2   302     6.0   1008.5    0.00 
 271   20:50   0.00   51.1    95    4.2   300     6.0   1008.8    0.00 
 271   21:00   0.00   51.2    95    3.5   300     5.8   1008.5    0.00 
 271   21:10   0.00   51.2    95    5.5   303     7.2   1008.5    0.00 
 271   21:20   0.00   51.3    95    3.7   309     5.8   1008.5    0.00 
 271   21:30   0.00   51.5    95    2.9   305     5.7   1008.8    0.00 
 271   21:40   0.00   51.6    95    3.6   312     5.0   1008.8    0.00 
 271   21:50   0.00   51.6    95    2.5   315     4.3   1008.8    0.00 
 271   22:00   0.00   51.6    96    1.2   326     2.5   1008.8    0.00 
 271   22:10   0.00   51.7    96    0.2     5     0.8   1008.8    0.00 
 271   22:20   0.00   51.8    96    0.6    55     1.2   1008.5    0.00 
 271   22:30   0.00   51.8    96    0.8    64     1.3   1008.8    0.00 
 271   22:40   0.00   51.9    96    1.7   103     2.9   1008.8    0.00 
 271   22:50   0.00   52.2    96    1.5   122     2.4   1008.8    0.00 
 271   23:00   0.00   52.3    96    2.0   104     3.4   1008.8    0.00 
 271   23:10   100.00  99999.0   99999  99999.0   99999   99999.0   99999.0   99999.00 
 271   23:20   100.00  99999.0   99999  99999.0   99999   99999.0   99999.0   99999.00 
 271   23:30   100.00  99999.0   99999  99999.0   99999   99999.0   99999.0   99999.00 
 271   23:40   100.00  99999.0   99999  99999.0   99999   99999.0   99999.0   99999.00 
 271   23:50   100.00  99999.0   99999  99999.0   99999   99999.0   99999.0   99999.00 
 272    0:00   0.00   53.5    96    8.2   133    11.0   1008.8    0.00 
 272    0:10   0.00   53.6    96    7.9   142    10.7   1008.8    0.00 
 272    0:20   0.00   53.6    96    8.7   136    11.7   1008.8    0.00 
 272    0:30   0.00   53.7    96    8.4   131    11.2   1008.8    0.00 
 272    0:40   0.00   53.7    96    8.4   129    11.5   1008.8    0.00 
 272    0:50   0.00   53.8    96    8.6   132    12.2   1008.8    0.00 
 272    1:00   0.00   53.9    96    8.9   132    13.9   1008.8    0.00 
 272    1:10   0.00   53.8    96    9.6   136    12.7   1008.8    0.00 
 272    1:20   0.00   53.9    96    9.5   137    12.1   1008.8    0.00 
 272    1:30   0.00   54.0    96    8.6   129    11.8   1008.8    0.00 
 272    1:40   0.00   54.1    96    8.6   133    11.8   1008.8    0.00 
 272    1:50   0.00   54.2    96    9.6   136    12.5   1008.8    0.00 
 272    2:00   0.00   54.2    96    6.5   124    10.7   1008.8    0.00 
 272    2:10   0.00   54.2    96    6.3   124    10.0   1008.8    0.00 
 272    2:20   0.00   54.3    96    5.7   118     9.8   1008.8    0.00 
 272    2:30   0.00   54.3    96    6.2   120    11.9   1008.8    0.00 
 272    2:40   0.00   54.3    96    6.8   123    11.2   1008.8    0.00 
 272    2:50   0.00   54.2    96    7.5   123    11.0   1008.8    0.00 
 272    3:00   0.00   54.2    96    7.5   127    12.5   1008.8    0.00 
 272    3:10   0.00   54.1    96    7.5   124    11.2   1008.5    0.00 
 272    3:20   0.00   54.0    96    6.7   122    11.0   1008.5    0.00 
 272    3:30   0.00   53.9    96    7.0   122    11.5   1008.5    0.00 
 272    3:40   0.00   53.9    96    8.1   127    12.6   1008.5    0.00 
 272    3:50   0.00   53.9    96    7.8   124    12.4   1008.5    0.00 
 272    4:00   0.00   53.8    96    7.5   125    12.0   1008.5    0.00 
 272    4:10   0.00   53.8    96    7.6   127    12.4   1008.8    0.00 
 272    4:20   0.00   53.6    96    7.3   126    12.1   1008.8    0.00 
 272    4:30   0.00   53.5    96    6.4   124     9.9   1008.8    0.00 
 272    4:40   0.00   53.5    96    7.1   132    10.2   1008.8    0.00 
 272    4:50   0.00   53.3    96    6.8   130     9.2   1008.8    0.00 
 272    5:00   0.00   53.3    96    7.0   136    10.2   1008.8    0.00 
 272    5:10   0.00   53.1    96    5.7   135     8.4   1008.8    0.00 
 272    5:20   0.00   52.9    96    3.8   125     6.9   1008.8    0.00 
 272    5:30   0.00   53.0    97    3.3   122     6.1   1008.8    0.00 
 272    5:40   0.00   53.0    96    3.7   132     6.4   1009.1    0.00 
 272    5:50   0.00   53.0    96    3.3   152     5.7   1009.1    0.00 
 272    6:00   0.00   52.8    96    1.9   168     4.5   1009.1    0.00 
 272    6:10   0.00   52.8    96    0.7   140     4.3   1009.1    0.00 
 272    6:20   0.00   52.6    96    1.6   177     4.5   1009.1    0.00 
 272    6:30   0.00   52.4    96    0.4    10     1.0   1009.5    0.00 
 272    6:40   0.00   52.5    97    0.0     0     0.0   1009.5    0.01 
 272    6:50   0.00   52.6    96    0.4   340     1.6   1009.5    0.00 
 272    7:00   0.00   52.7    97    1.2   314     2.1   1009.5    0.00 
 272    7:10   0.00   52.7    97    0.4   323     1.2   1009.5    0.00 
 272    7:20   0.00   52.8    97    0.1    37     0.9   1009.8    0.00 
 272    7:30   0.00   52.9    97    2.2   202     4.2   1009.8    0.00 
 272    7:40   0.01   52.7    97    1.6   253     3.1   1009.8    0.00 
 272    7:50   0.01   52.8    97    1.2   288     2.4   1010.2    0.00 
 272    8:00   0.02   53.0    97    1.8   144     5.3   1010.2    0.00 
 272    8:10   0.03   53.0    97    2.9   184     4.7   1010.2    0.00 
 272    8:20   0.03   53.1    97    2.5   189     5.2   1010.2    0.00 
 272    8:30   0.03   53.3    97    3.3   142     5.2   1010.5    0.00 
 272    8:40   0.03   53.4    97    1.9   181     4.6   1010.5    0.00 
 272    8:50   0.03   53.7    97    3.0   143     5.2   1010.5    0.00 
 272    9:00   0.03   53.5    97    3.5   127     5.1   1010.5    0.00 

Return to Bodega Marine Reserve graphs page.


Western Regional Climate Center,wrcc@dri.edu